Time;durP1;ratioP1;P1;durP2;ratioP2;P2;SDS_P1;SDS_P2;PMS_P1;PMS_P2;Temp;Humidity;BMP_temperature;BMP_pressure;BME280_temperature;BME280_humidity;BME280_pressure;Samples;Min_cycle;Max_cycle;Signal;HPM_P1;HPM_P2
2022/12/19 00:01:07;;;;;;;44.10;23.48;;;0.40;99.90;;;;;;5022519;28;20095;-66
2022/12/19 00:03:34;;;;;;;42.65;24.48;;;0.40;99.90;;;;;;5008008;28;20045;-66
2022/12/19 00:06:02;;;;;;;38.10;23.15;;;0.40;99.90;;;;;;5024640;28;20467;-66
2022/12/19 00:08:28;;;;;;;41.15;22.77;;;0.40;99.90;;;;;;5004275;28;20063;-66
2022/12/19 00:10:57;;;;;;;45.63;24.00;;;0.40;99.90;;;;;;5013686;28;20041;-65
2022/12/19 00:13:23;;;;;;;44.97;24.23;;;0.50;99.90;;;;;;5028624;28;20044;-66
2022/12/19 00:15:49;;;;;;;42.20;24.35;;;0.50;99.90;;;;;;5033226;28;20041;-66
2022/12/19 00:18:14;;;;;;;47.70;24.02;;;0.50;99.90;;;;;;5016103;28;20059;-67
2022/12/19 00:20:40;;;;;;;41.78;24.02;;;0.50;99.90;;;;;;5005002;28;20060;-65
2022/12/19 00:23:06;;;;;;;44.72;23.60;;;0.50;99.90;;;;;;4992821;28;20138;-67
2022/12/19 00:25:32;;;;;;;42.17;23.38;;;0.60;99.90;;;;;;5008122;28;20510;-65
2022/12/19 00:27:58;;;;;;;43.15;23.50;;;0.60;99.90;;;;;;5009409;28;20487;-65
2022/12/19 00:30:24;;;;;;;39.92;23.23;;;0.60;99.90;;;;;;5021254;28;20045;-66
2022/12/19 00:32:49;;;;;;;46.35;24.27;;;0.60;99.90;;;;;;5012631;28;20129;-66
2022/12/19 00:35:15;;;;;;;41.67;23.55;;;0.70;99.90;;;;;;5022567;28;20049;-65
2022/12/19 00:37:41;;;;;;;42.70;24.35;;;0.70;99.90;;;;;;5009999;28;20052;-67
2022/12/19 00:40:08;;;;;;;44.67;24.63;;;0.70;99.90;;;;;;5021009;28;20040;-66
2022/12/19 00:42:34;;;;;;;43.35;24.35;;;0.70;99.90;;;;;;4995269;28;20469;-67
2022/12/19 00:44:59;;;;;;;43.58;24.40;;;0.70;99.90;;;;;;5028169;28;20060;-66
2022/12/19 00:47:25;;;;;;;42.05;23.55;;;0.80;99.90;;;;;;5025109;28;20041;-66
2022/12/19 00:49:51;;;;;;;45.72;24.40;;;0.80;99.90;;;;;;5003657;28;20050;-65
2022/12/19 00:52:17;;;;;;;47.20;24.23;;;0.80;99.90;;;;;;5020941;28;20158;-66
2022/12/19 00:54:42;;;;;;;45.38;25.13;;;0.80;99.90;;;;;;5023140;28;20188;-64
2022/12/19 00:57:08;;;;;;;42.08;23.83;;;0.90;99.90;;;;;;5012638;28;20041;-65
2022/12/19 00:59:34;;;;;;;43.10;23.73;;;0.90;99.90;;;;;;5002044;28;20066;-66
2022/12/19 01:02:00;;;;;;;43.63;24.15;;;0.90;99.90;;;;;;5005227;28;20078;-65
2022/12/19 01:04:26;;;;;;;45.13;24.15;;;0.90;99.90;;;;;;4991444;28;20086;-67
2022/12/19 01:06:51;;;;;;;41.13;23.38;;;0.90;99.90;;;;;;5021110;28;20235;-66
2022/12/19 01:09:17;;;;;;;42.30;22.73;;;1.10;99.90;;;;;;4989089;28;20075;-67
2022/12/19 01:14:27;;;;;;;45.47;24.88;;;1.00;99.90;;;;;;5026077;28;20076;-66
2022/12/19 01:16:53;;;;;;;43.28;24.05;;;1.00;99.90;;;;;;5012565;28;20512;-66
2022/12/19 01:19:19;;;;;;;42.70;23.27;;;1.00;99.90;;;;;;5027396;28;20037;-66
2022/12/19 01:21:45;;;;;;;46.30;24.48;;;1.00;99.90;;;;;;5022314;28;20683;-66
2022/12/19 01:24:11;;;;;;;43.67;24.33;;;1.10;99.90;;;;;;5008786;28;20049;-65
2022/12/19 01:26:37;;;;;;;41.72;23.67;;;1.10;99.90;;;;;;5024196;28;20060;-65
2022/12/19 01:29:04;;;;;;;46.40;23.85;;;1.00;99.90;;;;;;5011457;28;20045;-67
2022/12/19 01:31:30;;;;;;;40.45;23.20;;;1.10;99.90;;;;;;5011885;28;20369;-67
2022/12/19 01:33:58;;;;;;;45.65;24.60;;;1.20;99.90;;;;;;5012597;28;20049;-66
2022/12/19 01:36:24;;;;;;;43.45;23.88;;;1.20;99.90;;;;;;5012518;28;21734;-66
2022/12/19 01:38:50;;;;;;;44.25;23.02;;;1.20;99.90;;;;;;5022769;28;20049;-67
2022/12/19 01:41:16;;;;;;;43.70;24.23;;;1.20;99.90;;;;;;5029515;28;20581;-65
2022/12/19 01:44:03;;;;;;;49.63;23.58;;;1.20;99.90;;;;;;5013096;28;20057;-64
2022/12/19 01:46:35;;;;;;;46.17;24.42;;;1.30;99.90;;;;;;5031858;28;20041;-64
2022/12/19 01:49:03;;;;;;;43.72;24.23;;;1.20;99.90;;;;;;5032739;28;20033;-67
2022/12/19 01:51:42;;;;;;;42.03;23.30;;;1.30;99.90;;;;;;5020216;28;20041;-64
2022/12/19 01:54:14;;;;;;;47.60;24.70;;;1.30;99.90;;;;;;5030966;28;20048;-66
2022/12/19 01:56:45;;;;;;;47.13;23.53;;;1.30;99.90;;;;;;5044806;28;20052;-66
2022/12/19 01:59:35;;;;;;;46.13;24.58;;;1.30;99.90;;;;;;5029335;28;20068;-66
2022/12/19 02:02:11;;;;;;;43.47;25.15;;;1.40;99.90;;;;;;5030807;28;20072;-66
2022/12/19 02:04:39;;;;;;;46.00;24.08;;;1.40;99.90;;;;;;5032460;28;20128;-64
2022/12/19 02:07:06;;;;;;;43.58;23.27;;;1.40;99.90;;;;;;5040683;28;20056;-66
2022/12/19 02:09:33;;;;;;;43.88;23.70;;;1.40;99.90;;;;;;5025986;28;20040;-66
2022/12/19 02:11:59;;;;;;;40.80;23.45;;;1.40;99.90;;;;;;5020845;28;20053;-65
2022/12/19 02:14:26;;;;;;;43.88;24.10;;;1.40;99.90;;;;;;4989789;28;20072;-67
2022/12/19 02:17:02;;;;;;;43.08;24.13;;;1.40;99.90;;;;;;5005369;28;20648;-65
2022/12/19 02:19:55;;;;;;;50.30;25.35;;;1.50;99.90;;;;;;5026279;28;20053;-65
2022/12/19 02:22:29;;;;;;;46.30;25.53;;;1.40;99.90;;;;;;5024382;28;20052;-66
2022/12/19 02:25:20;;;;;;;47.13;25.80;;;1.40;99.90;;;;;;5005632;28;20060;-65
2022/12/19 02:27:55;;;;;;;52.58;26.10;;;1.40;99.90;;;;;;5011748;28;20049;-65
2022/12/19 02:30:45;;;;;;;50.28;26.40;;;1.40;99.90;;;;;;5026948;28;20424;-66
2022/12/19 02:33:45;;;;;;;55.40;27.60;;;1.40;99.90;;;;;;5025099;28;20403;-66
2022/12/19 02:36:16;;;;;;;54.50;27.48;;;1.40;99.90;;;;;;4979562;28;20056;-64
2022/12/19 02:39:05;;;;;;;57.58;27.90;;;1.40;99.90;;;;;;5022836;28;20134;-65
2022/12/19 02:41:43;;;;;;;50.72;26.90;;;1.40;99.90;;;;;;5005478;28;20464;-65
2022/12/19 02:44:18;;;;;;;54.65;29.02;;;1.40;99.90;;;;;;5021621;28;20156;-66
2022/12/19 02:46:46;;;;;;;56.80;26.77;;;1.40;99.90;;;;;;5025449;28;20611;-67
2022/12/19 02:49:13;;;;;;;57.47;28.52;;;1.40;99.90;;;;;;5020804;28;20507;-66
2022/12/19 02:51:38;;;;;;;57.03;28.30;;;1.40;99.90;;;;;;5011461;28;20037;-66
2022/12/19 02:54:05;;;;;;;62.47;29.67;;;1.40;99.90;;;;;;5025895;28;20041;-65
2022/12/19 02:57:01;;;;;;;55.50;27.70;;;1.50;99.90;;;;;;5009902;28;20052;-66
2022/12/19 03:00:05;;;;;;;58.10;29.08;;;1.40;99.90;;;;;;5021190;28;20049;-64
2022/12/19 03:02:51;;;;;;;57.40;28.48;;;1.40;99.90;;;;;;4930749;28;20046;-64
2022/12/19 03:05:35;;;;;;;61.08;30.13;;;1.50;99.90;;;;;;4927057;28;20046;-64
2022/12/19 03:08:25;;;;;;;59.03;29.13;;;1.50;99.90;;;;;;4979924;28;20080;-66
2022/12/19 03:10:58;;;;;;;56.85;29.63;;;1.50;99.90;;;;;;5025056;28;20140;-64
2022/12/19 03:13:30;;;;;;;60.78;30.58;;;1.50;99.90;;;;;;5037408;28;20053;-66
2022/12/19 03:15:58;;;;;;;57.65;28.33;;;1.50;99.90;;;;;;5019441;28;20045;-66
2022/12/19 03:18:24;;;;;;;62.92;31.63;;;1.60;99.90;;;;;;5009048;28;20041;-67
2022/12/19 03:20:58;;;;;;;58.67;30.83;;;1.60;99.90;;;;;;5008190;28;20087;-66
2022/12/19 03:23:24;;;;;;;57.78;30.25;;;1.60;99.90;;;;;;5024108;28;20049;-64
2022/12/19 03:25:57;;;;;;;58.33;31.38;;;1.60;99.90;;;;;;5021297;28;20064;-66
2022/12/19 03:28:28;;;;;;;63.03;30.83;;;1.60;99.90;;;;;;4997417;28;22314;-66
2022/12/19 03:30:57;;;;;;;59.15;30.45;;;1.60;99.90;;;;;;5017978;28;20049;-65
2022/12/19 03:33:27;;;;;;;59.58;29.70;;;1.60;99.90;;;;;;5005317;28;20054;-65
2022/12/19 03:35:55;;;;;;;63.03;31.02;;;1.70;99.90;;;;;;5022700;28;20052;-66
2022/12/19 03:38:21;;;;;;;66.68;32.15;;;1.70;99.90;;;;;;5021644;28;21804;-65
2022/12/19 03:40:48;;;;;;;60.30;30.35;;;1.70;99.90;;;;;;5025238;28;20049;-64
2022/12/19 03:43:16;;;;;;;67.07;32.67;;;1.70;99.90;;;;;;5006569;28;20127;-65
2022/12/19 03:46:04;;;;;;;61.78;31.23;;;1.70;99.90;;;;;;5028931;28;20498;-67
2022/12/19 03:48:51;;;;;;;64.22;32.13;;;1.80;99.90;;;;;;5007625;28;20071;-64
2022/12/19 03:51:32;;;;;;;73.78;33.97;;;1.80;99.90;;;;;;5017172;28;20045;-64
2022/12/19 03:54:04;;;;;;;69.07;33.35;;;1.80;99.90;;;;;;5019567;28;20045;-64
2022/12/19 03:56:33;;;;;;;73.32;34.17;;;1.80;99.90;;;;;;5025582;28;20064;-66
2022/12/19 03:59:30;;;;;;;67.30;33.28;;;1.80;99.90;;;;;;5023235;28;20128;-64
2022/12/19 04:01:57;;;;;;;65.57;32.60;;;1.80;99.90;;;;;;5021687;28;21013;-65
2022/12/19 04:04:25;;;;;;;74.32;33.58;;;1.90;99.90;;;;;;5035778;28;20557;-66
2022/12/19 04:06:52;;;;;;;77.70;34.13;;;1.90;99.90;;;;;;5019995;28;20037;-66
2022/12/19 04:09:21;;;;;;;70.75;33.47;;;1.90;99.90;;;;;;5023272;28;20072;-66
2022/12/19 04:11:52;;;;;;;73.65;33.78;;;1.90;99.90;;;;;;5009668;28;20530;-63
2022/12/19 04:14:29;;;;;;;77.50;35.28;;;1.90;99.90;;;;;;5019845;28;20044;-66
2022/12/19 04:17:19;;;;;;;75.57;35.42;;;2.00;99.90;;;;;;5024604;28;20450;-65
2022/12/19 04:19:59;;;;;;;72.80;35.20;;;2.00;99.90;;;;;;5021712;28;20057;-65
2022/12/19 04:22:28;;;;;;;81.03;37.55;;;2.00;99.90;;;;;;5023272;28;20142;-65
2022/12/19 04:24:56;;;;;;;80.80;36.03;;;2.00;99.90;;;;;;5024894;28;20519;-66
2022/12/19 04:27:22;;;;;;;78.95;35.30;;;2.00;99.90;;;;;;5022114;28;20191;-66
2022/12/19 04:29:54;;;;;;;76.25;35.45;;;2.10;99.90;;;;;;4991571;28;20055;-64
2022/12/19 04:32:20;;;;;;;77.10;36.15;;;2.10;99.90;;;;;;5019565;28;20041;-66
2022/12/19 04:34:46;;;;;;;79.50;36.15;;;2.20;99.90;;;;;;5018595;28;20045;-66
2022/12/19 04:37:12;;;;;;;78.05;36.63;;;2.20;99.90;;;;;;5006647;28;20049;-67
2022/12/19 04:39:38;;;;;;;72.72;35.45;;;2.20;99.90;;;;;;5007856;28;20057;-65
2022/12/19 04:42:04;;;;;;;79.43;34.53;;;2.20;99.90;;;;;;5016181;28;20460;-65
2022/12/19 04:44:29;;;;;;;74.43;35.83;;;2.20;99.90;;;;;;5012500;28;20057;-64
2022/12/19 04:46:55;;;;;;;72.03;34.88;;;2.30;99.90;;;;;;5010479;28;20061;-65
2022/12/19 04:49:21;;;;;;;78.30;36.53;;;2.30;99.90;;;;;;5013383;28;21089;-64
2022/12/19 04:51:47;;;;;;;78.15;36.35;;;2.30;99.90;;;;;;5010124;28;20439;-65
2022/12/19 04:54:13;;;;;;;82.28;37.13;;;2.40;99.90;;;;;;5028242;28;20154;-64
2022/12/19 04:56:38;;;;;;;79.78;36.00;;;2.30;99.90;;;;;;5025963;28;20139;-65
2022/12/19 04:59:04;;;;;;;77.00;36.55;;;2.40;99.90;;;;;;4998057;28;20526;-64
2022/12/19 05:01:30;;;;;;;80.35;36.05;;;2.40;99.90;;;;;;5028218;28;20217;-64
2022/12/19 05:03:57;;;;;;;78.75;35.33;;;2.50;99.90;;;;;;5027380;28;20053;-63
2022/12/19 05:06:22;;;;;;;75.65;36.50;;;2.40;99.90;;;;;;4991078;28;20556;-63
2022/12/19 05:08:48;;;;;;;74.90;36.67;;;2.40;99.90;;;;;;5010075;28;20045;-64
2022/12/19 05:11:15;;;;;;;81.63;36.38;;;2.50;99.90;;;;;;5023731;28;20049;-65
2022/12/19 05:13:41;;;;;;;83.45;38.95;;;2.50;99.90;;;;;;5023871;28;20088;-66
2022/12/19 05:16:10;;;;;;;85.60;38.22;;;2.50;99.90;;;;;;5024129;28;20891;-66
2022/12/19 05:18:36;;;;;;;74.75;37.88;;;2.60;99.90;;;;;;5008191;28;20068;-67
2022/12/19 05:21:03;;;;;;;82.22;38.33;;;2.50;99.90;;;;;;5017577;28;20057;-64
2022/12/19 05:23:29;;;;;;;79.60;37.72;;;2.60;99.90;;;;;;4999596;28;20053;-64
2022/12/19 05:25:59;;;;;;;81.68;36.75;;;2.60;99.90;;;;;;5005509;28;20118;-66
2022/12/19 05:28:26;;;;;;;80.53;37.33;;;2.60;99.90;;;;;;5013704;28;20088;-65
2022/12/19 05:31:00;;;;;;;74.55;35.72;;;2.60;99.90;;;;;;5021703;28;20920;-64
2022/12/19 05:33:27;;;;;;;80.10;36.67;;;2.60;99.90;;;;;;5000974;28;21103;-64
2022/12/19 05:35:53;;;;;;;79.30;38.28;;;2.60;99.90;;;;;;5002587;28;20053;-64
2022/12/19 05:38:19;;;;;;;82.95;37.63;;;2.70;99.90;;;;;;5023136;28;20353;-66
2022/12/19 05:40:45;;;;;;;73.32;34.45;;;2.70;99.90;;;;;;5006922;28;20515;-64
2022/12/19 05:43:10;;;;;;;74.63;36.13;;;2.70;99.90;;;;;;5010509;28;20498;-64
2022/12/19 05:45:39;;;;;;;71.20;35.00;;;2.70;99.90;;;;;;5017649;28;20136;-67
2022/12/19 05:48:05;;;;;;;71.65;34.92;;;2.80;99.90;;;;;;5005415;28;20052;-65
2022/12/19 05:50:31;;;;;;;75.78;36.42;;;2.70;99.90;;;;;;5000001;28;20148;-64
2022/12/19 05:52:56;;;;;;;74.03;35.38;;;2.80;99.90;;;;;;5014924;28;20885;-65
2022/12/19 05:55:22;;;;;;;70.32;33.85;;;2.80;99.90;;;;;;5003549;28;20048;-66
2022/12/19 05:57:48;;;;;;;71.97;33.75;;;2.90;99.90;;;;;;5020441;28;20171;-64
2022/12/19 06:00:15;;;;;;;77.80;35.08;;;2.90;99.90;;;;;;5021805;28;20073;-66
2022/12/19 06:02:41;;;;;;;73.30;34.03;;;2.90;99.90;;;;;;5025381;28;20057;-64
2022/12/19 06:05:08;;;;;;;75.30;33.15;;;2.90;99.90;;;;;;5041479;28;20624;-63
2022/12/19 06:07:33;;;;;;;62.30;30.65;;;3.00;99.90;;;;;;5023030;28;20156;-66
2022/12/19 06:10:00;;;;;;;61.13;30.30;;;3.00;99.90;;;;;;5039366;28;20045;-64
2022/12/19 06:12:26;;;;;;;65.20;30.65;;;3.10;99.90;;;;;;4991365;28;20488;-65
2022/12/19 06:14:51;;;;;;;56.95;29.70;;;3.10;99.90;;;;;;5028829;28;20052;-64
2022/12/19 06:17:17;;;;;;;57.70;28.77;;;3.10;99.90;;;;;;5008356;28;20037;-65
2022/12/19 06:19:43;;;;;;;59.95;29.42;;;3.10;99.90;;;;;;4991967;28;20053;-65
2022/12/19 06:22:09;;;;;;;53.60;27.77;;;3.10;99.90;;;;;;4976881;28;20377;-66
2022/12/19 06:24:35;;;;;;;54.83;28.05;;;3.20;99.90;;;;;;5021621;28;20068;-65
2022/12/19 06:27:01;;;;;;;57.28;28.27;;;3.20;99.90;;;;;;5022638;28;20052;-64
2022/12/19 06:29:27;;;;;;;53.63;28.20;;;3.20;99.90;;;;;;5018121;28;20076;-65
2022/12/19 06:31:52;;;;;;;54.63;26.77;;;3.20;99.90;;;;;;4998365;28;20045;-66
2022/12/19 06:34:18;;;;;;;49.40;27.20;;;3.30;99.90;;;;;;5014435;28;20519;-65
2022/12/19 06:36:44;;;;;;;53.08;26.00;;;3.30;99.90;;;;;;5033724;28;20048;-65
2022/12/19 06:39:13;;;;;;;53.53;26.90;;;3.30;99.90;;;;;;5024501;28;20456;-66
2022/12/19 06:44:23;;;;;;;50.72;25.58;;;3.40;99.90;;;;;;5023964;28;20049;-65
2022/12/19 06:46:51;;;;;;;51.40;26.13;;;3.40;99.90;;;;;;4998641;28;20146;-65
2022/12/19 06:49:17;;;;;;;49.78;25.05;;;3.50;99.90;;;;;;5031974;28;20049;-66
2022/12/19 06:51:43;;;;;;;44.72;25.05;;;3.50;99.90;;;;;;5040390;28;20052;-66
2022/12/19 06:54:10;;;;;;;51.15;24.98;;;3.50;99.90;;;;;;5031251;28;20049;-64
2022/12/19 06:56:37;;;;;;;45.38;22.83;;;3.50;99.90;;;;;;5042542;28;20192;-64
2022/12/19 06:59:04;;;;;;;42.90;22.38;;;3.60;99.90;;;;;;5035546;28;20556;-63
2022/12/19 07:01:52;;;;;;;42.75;22.40;;;3.60;99.90;;;;;;5033177;28;20142;-67
2022/12/19 07:04:35;;;;;;;40.63;21.75;;;3.60;99.90;;;;;;5027256;28;20063;-62
2022/12/19 07:07:02;;;;;;;41.97;22.00;;;3.70;99.90;;;;;;5025514;28;20071;-62
2022/12/19 07:09:30;;;;;;;40.83;21.10;;;3.80;99.90;;;;;;5034975;28;22056;-62
2022/12/19 07:11:55;;;;;;;38.65;20.85;;;3.80;99.90;;;;;;5029364;28;20049;-62
2022/12/19 07:14:21;;;;;;;42.20;21.48;;;3.80;99.90;;;;;;5030760;28;20053;-62
2022/12/19 07:16:49;;;;;;;36.92;20.40;;;3.90;99.90;;;;;;5034396;28;20055;-62
2022/12/19 07:19:15;;;;;;;39.80;20.98;;;3.90;99.90;;;;;;5010507;28;20068;-62
2022/12/19 07:21:41;;;;;;;39.65;20.55;;;3.90;99.90;;;;;;5039844;28;20049;-63
2022/12/19 07:24:07;;;;;;;32.85;19.38;;;3.90;99.90;;;;;;5035030;28;20049;-62
2022/12/19 07:26:34;;;;;;;39.50;20.95;;;3.90;99.90;;;;;;5031344;28;20053;-62
2022/12/19 07:29:00;;;;;;;35.85;21.08;;;3.90;99.90;;;;;;5030607;28;20045;-63
2022/12/19 07:31:26;;;;;;;36.80;20.52;;;4.00;99.90;;;;;;5007458;28;20041;-62
2022/12/19 07:33:51;;;;;;;36.95;20.25;;;3.90;99.90;;;;;;5033040;28;20064;-62
2022/12/19 07:36:17;;;;;;;35.15;20.27;;;4.10;99.90;;;;;;5031677;28;20053;-62
2022/12/19 07:38:44;;;;;;;37.92;20.42;;;4.00;99.90;;;;;;5016476;28;20143;-62
2022/12/19 07:41:10;;;;;;;38.60;21.38;;;4.10;99.90;;;;;;5031864;28;20494;-62
2022/12/19 07:43:35;;;;;;;37.15;20.25;;;4.10;99.90;;;;;;5011826;28;20124;-63
2022/12/19 07:46:01;;;;;;;36.42;20.95;;;4.10;99.90;;;;;;5034445;28;20060;-62
2022/12/19 07:48:29;;;;;;;35.17;19.38;;;4.10;99.90;;;;;;5033011;28;20438;-63
2022/12/19 07:50:55;;;;;;;35.97;20.67;;;4.10;99.90;;;;;;5034084;28;20156;-63
2022/12/19 07:53:21;;;;;;;35.17;19.73;;;4.20;99.90;;;;;;5031704;28;20463;-62
2022/12/19 07:55:51;;;;;;;36.72;19.95;;;4.10;99.90;;;;;;5030225;28;20087;-63
2022/12/19 07:58:17;;;;;;;36.83;20.35;;;4.10;99.90;;;;;;5036382;28;20080;-62
2022/12/19 08:00:43;;;;;;;33.97;19.67;;;4.10;99.90;;;;;;5033755;28;20430;-63
2022/12/19 08:03:09;;;;;;;36.65;19.40;;;4.20;99.90;;;;;;5033640;28;20044;-63
2022/12/19 08:05:35;;;;;;;35.03;19.80;;;4.20;99.90;;;;;;5028863;28;20068;-63
2022/12/19 08:08:00;;;;;;;35.42;19.75;;;4.20;99.90;;;;;;5034538;28;20800;-63
2022/12/19 08:10:26;;;;;;;35.25;18.63;;;4.20;99.90;;;;;;5036199;28;20037;-62
2022/12/19 08:12:52;;;;;;;30.77;18.63;;;4.30;99.90;;;;;;5033586;28;20055;-62
2022/12/19 08:15:18;;;;;;;41.55;20.73;;;4.30;99.90;;;;;;5031851;28;20045;-62
2022/12/19 08:17:43;;;;;;;33.50;19.45;;;4.30;99.90;;;;;;5032179;28;20124;-63
2022/12/19 08:20:10;;;;;;;36.65;19.63;;;4.30;99.90;;;;;;5032680;28;20530;-62
2022/12/19 08:22:36;;;;;;;30.20;18.48;;;4.30;99.90;;;;;;5034962;28;20128;-63
2022/12/19 08:25:02;;;;;;;36.85;19.60;;;4.40;99.90;;;;;;5031747;28;20136;-62
2022/12/19 08:27:28;;;;;;;35.97;18.58;;;4.40;99.90;;;;;;5031485;28;20075;-62
2022/12/19 08:29:54;;;;;;;35.25;19.08;;;4.40;99.90;;;;;;5034008;28;20052;-62
2022/12/19 08:32:20;;;;;;;35.67;19.38;;;4.50;99.90;;;;;;5032854;28;20404;-62
2022/12/19 08:34:46;;;;;;;33.97;17.92;;;4.50;99.90;;;;;;5030561;28;20077;-63
2022/12/19 08:37:12;;;;;;;36.25;18.95;;;4.50;99.90;;;;;;5035152;28;20053;-62
2022/12/19 08:39:38;;;;;;;35.17;18.83;;;4.60;99.90;;;;;;5034346;28;20103;-63
2022/12/19 08:42:04;;;;;;;34.13;19.63;;;4.60;99.90;;;;;;5040356;28;20102;-62
2022/12/19 08:44:30;;;;;;;34.13;18.67;;;4.70;99.90;;;;;;5032604;28;20110;-62
2022/12/19 08:46:55;;;;;;;32.42;18.15;;;4.70;99.90;;;;;;5034049;28;20217;-62
2022/12/19 08:49:21;;;;;;;32.85;18.08;;;4.70;99.90;;;;;;5031312;28;20041;-62
2022/12/19 08:51:47;;;;;;;34.88;19.20;;;4.70;99.90;;;;;;5032710;28;20052;-62
2022/12/19 08:54:13;;;;;;;32.65;18.15;;;4.70;99.90;;;;;;5031850;28;20080;-62
2022/12/19 08:56:39;;;;;;;33.50;18.08;;;4.80;99.90;;;;;;5030372;28;20424;-63
2022/12/19 08:59:05;;;;;;;29.27;17.48;;;4.80;99.90;;;;;;5035192;28;20056;-63
2022/12/19 09:01:31;;;;;;;32.10;18.40;;;4.90;99.90;;;;;;5032929;28;20518;-63
2022/12/19 09:03:58;;;;;;;31.40;18.45;;;4.90;99.90;;;;;;5030614;28;20049;-62
2022/12/19 09:06:24;;;;;;;31.40;18.92;;;5.00;99.90;;;;;;5032972;28;20081;-62
2022/12/19 09:08:50;;;;;;;35.42;19.08;;;5.00;99.90;;;;;;5034373;28;20045;-62
2022/12/19 09:11:18;;;;;;;31.90;18.77;;;5.10;99.90;;;;;;5031559;28;20047;-62
2022/12/19 09:13:45;;;;;;;34.50;18.52;;;5.10;99.90;;;;;;5017308;28;20049;-62
2022/12/19 09:16:16;;;;;;;30.00;18.85;;;5.10;99.90;;;;;;5030475;28;20053;-62
2022/12/19 09:18:43;;;;;;;34.63;19.45;;;5.10;99.90;;;;;;5033331;28;20080;-62
2022/12/19 09:21:10;;;;;;;33.88;19.17;;;5.20;99.90;;;;;;5032141;28;20071;-62
2022/12/19 09:23:36;;;;;;;32.03;19.55;;;5.20;99.90;;;;;;5031651;28;20044;-62
2022/12/19 09:26:11;;;;;;;32.05;19.50;;;5.20;99.90;;;;;;5028811;28;20823;-62
2022/12/19 09:28:38;;;;;;;35.47;19.80;;;5.30;99.90;;;;;;5033765;28;20057;-62
2022/12/19 09:31:06;;;;;;;31.95;19.33;;;5.40;99.90;;;;;;5033208;28;20169;-63
2022/12/19 09:33:34;;;;;;;34.67;19.38;;;5.40;99.90;;;;;;5017100;28;20042;-62
2022/12/19 09:36:01;;;;;;;33.47;19.45;;;5.50;99.90;;;;;;5040706;28;20484;-63
2022/12/19 09:38:28;;;;;;;32.15;19.65;;;5.50;99.90;;;;;;5036094;28;20415;-62
2022/12/19 09:40:57;;;;;;;32.25;19.48;;;5.60;99.90;;;;;;5036704;28;20049;-62
2022/12/19 09:43:40;;;;;;;35.53;20.95;;;5.70;99.90;;;;;;5038273;28;20049;-62
2022/12/19 09:46:19;;;;;;;;;;;5.70;99.90;;;;;;5035255;28;21647;-63
2022/12/19 09:48:46;;;;;;;36.33;21.35;;;5.70;99.90;;;;;;5033697;28;20374;-62
2022/12/19 09:51:42;;;;;;;35.45;21.45;;;5.80;99.90;;;;;;5035022;28;20064;-62
2022/12/19 09:54:23;;;;;;;36.60;20.90;;;5.80;99.90;;;;;;5000525;28;20048;-62
2022/12/19 09:56:56;;;;;;;34.72;21.73;;;5.90;99.90;;;;;;5035059;28;20102;-62
2022/12/19 09:59:27;;;;;;;34.35;20.90;;;5.90;99.90;;;;;;5018030;28;20127;-63
2022/12/19 10:02:22;;;;;;;32.85;21.63;;;6.00;99.90;;;;;;5020611;28;20368;-63
2022/12/19 10:04:53;;;;;;;37.42;21.75;;;6.00;99.90;;;;;;5044963;28;20764;-63
2022/12/19 10:07:20;;;;;;;35.58;21.40;;;6.10;99.90;;;;;;5035846;28;20037;-63
2022/12/19 10:09:46;;;;;;;36.25;21.33;;;6.10;99.90;;;;;;5050904;28;20097;-62
2022/12/19 10:12:21;;;;;;;36.47;22.10;;;6.20;99.90;;;;;;5037741;28;20044;-62
2022/12/19 10:15:07;;;;;;;34.97;21.90;;;6.30;99.90;;;;;;5036254;28;20135;-62
2022/12/19 10:18:08;;;;;;;36.85;22.13;;;6.30;99.90;;;;;;5035025;28;20507;-62
2022/12/19 10:20:37;;;;;;;31.13;20.23;;;6.30;99.90;;;;;;5042605;28;20053;-63
2022/12/19 10:23:23;;;;;;;31.90;21.65;;;6.40;99.90;;;;;;5036955;28;20048;-63
2022/12/19 10:26:03;;;;;;;32.28;20.70;;;6.50;99.90;;;;;;5043061;28;20060;-63
2022/12/19 10:28:48;;;;;;;33.78;20.73;;;6.50;99.90;;;;;;5034086;28;20136;-63
2022/12/19 10:31:42;;;;;;;30.60;20.17;;;6.50;99.90;;;;;;5034194;28;20045;-63
2022/12/19 10:34:19;;;;;;;31.73;21.02;;;6.60;99.90;;;;;;5035152;28;20049;-62
2022/12/19 10:36:53;;;;;;;31.67;20.08;;;6.70;99.90;;;;;;5031658;28;20063;-63
2022/12/19 10:39:32;;;;;;;30.85;20.90;;;6.70;99.90;;;;;;5033507;28;20991;-63
2022/12/19 10:42:39;;;;;;;30.13;19.58;;;6.70;99.90;;;;;;5042311;28;20132;-63
2022/12/19 10:45:14;;;;;;;29.75;19.88;;;6.80;99.90;;;;;;4957908;28;20150;-63
2022/12/19 10:47:41;;;;;;;31.08;19.65;;;6.90;99.90;;;;;;5027944;28;20056;-63
2022/12/19 10:50:12;;;;;;;32.92;20.33;;;6.90;99.90;;;;;;5031088;28;20096;-63
2022/12/19 10:53:06;;;;;;;27.27;18.67;;;7.00;99.90;;;;;;5035958;28;20064;-63
2022/12/19 10:55:32;;;;;;;28.17;18.85;;;7.00;99.90;;;;;;5040749;28;20087;-63
2022/12/19 10:57:59;;;;;;;23.92;17.00;;;7.10;99.90;;;;;;5032420;28;20053;-63
2022/12/19 11:00:26;;;;;;;24.35;16.92;;;7.10;99.90;;;;;;5017229;28;20046;-63
2022/12/19 11:03:14;;;;;;;27.25;17.85;;;7.10;99.90;;;;;;5042014;28;20044;-63
2022/12/19 11:05:50;;;;;;;36.60;17.10;;;7.20;99.90;;;;;;5033188;28;20053;-62
2022/12/19 11:08:21;;;;;;;26.02;16.45;;;7.20;99.90;;;;;;5029384;28;20056;-63
2022/12/19 11:10:49;;;;;;;24.88;16.67;;;7.20;99.90;;;;;;5034096;28;20051;-63
2022/12/19 11:13:25;;;;;;;26.17;16.45;;;7.30;99.90;;;;;;5012451;28;20596;-62
2022/12/19 11:15:53;;;;;;;23.85;16.20;;;7.30;99.90;;;;;;5042475;28;20041;-63
2022/12/19 11:18:19;;;;;;;22.45;15.80;;;7.40;99.90;;;;;;5030536;28;20412;-63
2022/12/19 11:21:04;;;;;;;24.13;16.13;;;7.40;99.90;;;;;;5032545;28;20041;-63
2022/12/19 11:23:32;;;;;;;20.80;14.80;;;7.40;99.90;;;;;;5033826;28;20388;-63
2022/12/19 11:26:01;;;;;;;22.05;15.65;;;7.50;99.90;;;;;;5032593;28;20053;-63
2022/12/19 11:28:37;;;;;;;21.38;15.48;;;7.60;99.90;;;;;;5029636;28;20056;-63
2022/12/19 11:31:22;;;;;;;20.70;14.40;;;7.50;99.90;;;;;;5035699;28;20128;-63
2022/12/19 11:34:03;;;;;;;22.42;14.25;;;7.50;99.90;;;;;;5032885;28;20037;-63
2022/12/19 11:36:42;;;;;;;22.27;14.10;;;7.50;99.90;;;;;;5035624;28;20076;-63
2022/12/19 11:39:20;;;;;;;21.42;14.65;;;7.60;99.90;;;;;;5031817;28;20214;-63
2022/12/19 11:41:54;;;;;;;20.52;14.15;;;7.60;99.90;;;;;;5033351;28;20077;-63
2022/12/19 11:44:46;;;;;;;19.48;13.80;;;7.70;99.90;;;;;;5033459;28;20045;-63
2022/12/19 11:47:26;;;;;;;20.15;13.48;;;7.70;99.90;;;;;;5001121;28;20061;-63
2022/12/19 11:50:17;;;;;;;21.85;15.82;;;7.80;99.90;;;;;;5032742;28;20045;-63
2022/12/19 11:52:49;;;;;;;19.42;13.70;;;7.80;99.90;;;;;;5044047;28;20490;-63
2022/12/19 11:55:25;;;;;;;17.85;14.18;;;7.90;99.90;;;;;;5033801;28;20428;-63
2022/12/19 11:57:53;;;;;;;19.55;13.52;;;7.90;99.90;;;;;;5039289;28;20123;-62
2022/12/19 12:00:21;;;;;;;27.48;15.63;;;7.90;99.90;;;;;;5040314;28;20095;-63
2022/12/19 12:02:55;;;;;;;19.10;13.85;;;7.90;99.90;;;;;;5033688;28;20049;-63
2022/12/19 12:05:46;;;;;;;19.30;13.93;;;7.90;99.90;;;;;;5034589;28;20052;-63
2022/12/19 12:08:30;;;;;;;17.73;13.40;;;7.90;99.90;;;;;;5024862;28;20455;-63
2022/12/19 12:11:24;;;;;;;19.30;14.00;;;7.90;99.90;;;;;;5033939;28;20127;-63
2022/12/19 12:14:14;;;;;;;20.80;13.25;;;7.90;99.90;;;;;;5035802;28;20124;-63
2022/12/19 12:16:52;;;;;;;20.98;13.52;;;7.90;99.90;;;;;;5036870;28;20436;-63
2022/12/19 12:19:40;;;;;;;19.50;12.93;;;8.00;99.90;;;;;;5035686;28;20385;-63
2022/12/19 12:22:23;;;;;;;22.10;13.55;;;8.00;99.90;;;;;;5032060;28;20045;-63
2022/12/19 12:24:54;;;;;;;20.33;13.48;;;8.00;99.90;;;;;;5031698;28;20144;-63
2022/12/19 12:27:41;;;;;;;19.67;12.88;;;8.10;99.90;;;;;;5040064;28;20081;-63
2022/12/19 12:30:21;;;;;;;20.55;14.13;;;8.10;99.90;;;;;;5014844;28;20049;-63
2022/12/19 12:33:05;;;;;;;17.13;12.77;;;8.10;99.90;;;;;;5011657;28;20678;-63
2022/12/19 12:35:36;;;;;;;18.30;14.18;;;8.20;99.90;;;;;;5032508;28;20107;-63
2022/12/19 12:38:24;;;;;;;24.08;14.07;;;8.20;99.90;;;;;;5039345;28;20399;-64
2022/12/19 12:41:19;;;;;;;17.85;12.55;;;8.30;99.90;;;;;;5032991;28;20058;-63
2022/12/19 12:44:00;;;;;;;22.40;12.70;;;8.30;99.90;;;;;;5031797;28;20068;-62
2022/12/19 12:46:33;;;;;;;17.50;12.25;;;8.20;99.90;;;;;;5031776;28;20377;-63
2022/12/19 12:49:22;;;;;;;20.25;12.75;;;8.20;99.90;;;;;;5030509;28;20041;-63
2022/12/19 12:51:48;;;;;;;22.48;13.68;;;8.20;99.90;;;;;;5033546;28;20042;-62
2022/12/19 12:54:15;;;;;;;20.35;14.63;;;8.20;99.90;;;;;;5013034;28;20458;-63
2022/12/19 12:56:43;;;;;;;16.95;13.05;;;8.20;99.90;;;;;;5030901;28;20107;-63
2022/12/19 12:59:27;;;;;;;17.67;13.15;;;8.20;99.90;;;;;;5049670;28;20048;-63
2022/12/19 13:02:17;;;;;;;23.73;14.73;;;8.20;99.90;;;;;;5035066;28;20044;-63
2022/12/19 13:04:59;;;;;;;21.20;12.73;;;8.20;99.90;;;;;;5028899;28;20049;-63